createdAt,value
2019-05-22T00:02:46.182Z,16.40
2019-05-22T00:05:24.315Z,16.20
2019-05-22T00:07:55.305Z,16.20
2019-05-22T00:10:28.539Z,16.10
2019-05-22T00:12:59.710Z,16.10
2019-05-22T00:15:30.612Z,16.10
2019-05-22T00:18:02.873Z,16.10
2019-05-22T00:20:33.690Z,15.90
2019-05-22T00:23:07.418Z,15.90
2019-05-22T00:25:37.895Z,15.90
2019-05-22T00:28:10.101Z,15.90
2019-05-22T00:30:41.921Z,16.00
2019-05-22T00:33:12.062Z,15.90
2019-05-22T00:35:42.268Z,15.80
2019-05-22T00:38:11.782Z,15.80
2019-05-22T00:40:44.735Z,15.80
2019-05-22T00:43:18.717Z,15.60
2019-05-22T00:45:50.649Z,15.60
2019-05-22T00:48:23.739Z,15.70
2019-05-22T00:51:16.545Z,15.80
2019-05-22T00:53:57.907Z,15.50
2019-05-22T00:56:51.388Z,15.70
2019-05-22T00:59:29.294Z,15.70
2019-05-22T01:02:02.518Z,15.70
2019-05-22T01:04:38.135Z,15.60
2019-05-22T01:07:18.264Z,15.50
2019-05-22T01:09:49.195Z,15.50
2019-05-22T01:12:26.977Z,15.50
2019-05-22T01:15:00.316Z,15.50
2019-05-22T01:17:32.055Z,15.50
2019-05-22T01:20:03.067Z,15.40
2019-05-22T01:22:36.229Z,15.50
2019-05-22T01:25:06.966Z,15.60
2019-05-22T01:27:38.941Z,15.60
2019-05-22T01:30:13.367Z,15.50
2019-05-22T01:32:49.961Z,15.60
2019-05-22T01:35:20.965Z,15.50
2019-05-22T01:37:51.875Z,15.40
2019-05-22T01:40:32.636Z,15.40
2019-05-22T01:43:03.490Z,15.50
2019-05-22T01:45:33.680Z,15.40
2019-05-22T01:48:08.829Z,15.40
2019-05-22T01:50:47.701Z,15.40
2019-05-22T01:53:21.122Z,15.50
2019-05-22T01:55:58.116Z,15.50
2019-05-22T01:58:30.549Z,15.50
2019-05-22T02:01:02.769Z,15.40
2019-05-22T02:03:34.331Z,15.40
2019-05-22T02:06:06.251Z,15.30
2019-05-22T02:08:41.554Z,15.30
2019-05-22T02:11:14.269Z,15.40
2019-05-22T02:13:49.375Z,15.40
2019-05-22T02:16:18.661Z,15.30
2019-05-22T02:18:49.416Z,15.20
2019-05-22T02:21:19.128Z,15.20
2019-05-22T02:23:48.568Z,15.10
2019-05-22T02:26:19.839Z,15.10
2019-05-22T02:28:50.936Z,15.20
2019-05-22T02:31:23.418Z,15.10
2019-05-22T02:34:08.248Z,15.10
2019-05-22T02:36:41.850Z,15.10
2019-05-22T02:39:23.608Z,15.10
2019-05-22T02:41:58.731Z,15.10
2019-05-22T02:44:29.788Z,15.10
2019-05-22T02:47:16.454Z,15.10
2019-05-22T02:49:32.860Z,15.10
2019-05-22T02:52:03.675Z,15.00
2019-05-22T02:54:34.328Z,15.20
2019-05-22T02:57:04.694Z,15.20
2019-05-22T02:59:34.432Z,15.30
2019-05-22T03:02:04.545Z,15.10
2019-05-22T03:04:57.600Z,15.00
2019-05-22T03:07:29.889Z,15.00
2019-05-22T03:10:01.176Z,15.00
2019-05-22T03:12:32.534Z,15.00
2019-05-22T03:15:02.607Z,15.10
2019-05-22T03:17:33.671Z,15.00
2019-05-22T03:20:11.365Z,15.00
2019-05-22T03:22:55.463Z,15.00
2019-05-22T03:25:28.026Z,15.00
2019-05-22T03:27:57.669Z,15.00
2019-05-22T03:30:31.255Z,15.10
2019-05-22T03:33:03.934Z,15.10
2019-05-22T03:35:40.764Z,15.00
2019-05-22T03:38:10.741Z,14.90
2019-05-22T03:40:40.598Z,14.90
2019-05-22T03:43:20.894Z,14.90
2019-05-22T03:45:50.955Z,14.90
2019-05-22T03:48:22.500Z,14.90
2019-05-22T03:50:56.224Z,15.00
2019-05-22T03:53:25.981Z,14.80
2019-05-22T03:55:56.337Z,14.70
2019-05-22T03:58:26.395Z,14.70
2019-05-22T04:00:58.123Z,14.80
2019-05-22T04:03:27.606Z,14.70
2019-05-22T04:05:58.875Z,14.80
2019-05-22T04:08:29.050Z,14.70
2019-05-22T04:11:02.012Z,14.60
2019-05-22T04:13:32.852Z,14.50
2019-05-22T04:16:04.308Z,14.60
2019-05-22T04:18:37.382Z,14.60
2019-05-22T04:21:06.671Z,14.50
2019-05-22T04:23:37.645Z,14.50
2019-05-22T04:26:11.433Z,14.50
2019-05-22T04:28:49.975Z,14.50
2019-05-22T04:31:20.221Z,14.50
2019-05-22T04:33:49.985Z,14.40
2019-05-22T04:36:21.603Z,14.50
2019-05-22T04:38:52.334Z,14.40
2019-05-22T04:41:22.983Z,14.40
2019-05-22T04:43:53.466Z,14.40
2019-05-22T04:46:23.050Z,14.50
2019-05-22T04:48:53.926Z,14.30
2019-05-22T04:51:29.922Z,14.30
2019-05-22T04:53:59.368Z,14.30
2019-05-22T04:56:29.796Z,14.40
2019-05-22T04:59:01.960Z,14.30
2019-05-22T05:01:31.481Z,14.20
2019-05-22T05:04:01.522Z,14.20
2019-05-22T05:06:33.338Z,14.20
2019-05-22T05:09:03.983Z,14.10
2019-05-22T05:11:36.243Z,14.10
2019-05-22T05:14:10.540Z,14.20
2019-05-22T05:16:40.986Z,14.30
2019-05-22T05:19:11.383Z,14.20
2019-05-22T05:21:40.792Z,14.00
2019-05-22T05:24:10.156Z,14.10
2019-05-22T05:26:40.327Z,14.10
2019-05-22T05:29:26.125Z,14.10
2019-05-22T05:31:56.270Z,14.00
2019-05-22T05:34:35.491Z,14.10
2019-05-22T05:37:08.052Z,14.00
2019-05-22T05:40:36.247Z,14.00
2019-05-22T05:43:06.425Z,14.10
2019-05-22T05:45:36.298Z,14.00
2019-05-22T05:48:08.517Z,13.90
2019-05-22T05:50:40.568Z,13.80
2019-05-22T05:53:16.867Z,13.80
2019-05-22T05:56:14.973Z,13.90
2019-05-22T05:58:44.840Z,13.90
2019-05-22T06:01:22.440Z,13.90
2019-05-22T06:03:52.742Z,13.90
2019-05-22T06:07:11.317Z,14.10
2019-05-22T06:09:41.384Z,13.90
2019-05-22T06:12:12.985Z,13.80
2019-05-22T06:14:42.230Z,13.80
2019-05-22T06:17:47.532Z,13.70
2019-05-22T06:20:20.351Z,13.90
2019-05-22T06:23:44.135Z,13.90
2019-05-22T06:26:38.381Z,13.80
2019-05-22T06:29:08.082Z,13.60
2019-05-22T06:31:47.468Z,13.60
2019-05-22T06:34:17.026Z,13.70
2019-05-22T06:36:46.586Z,13.80
2019-05-22T06:39:16.686Z,13.70
2019-05-22T06:41:48.361Z,13.70
2019-05-22T06:44:32.716Z,13.70
2019-05-22T06:47:02.940Z,13.60
2019-05-22T06:49:51.579Z,13.60
2019-05-22T06:52:21.214Z,13.50
2019-05-22T06:54:51.930Z,13.40
2019-05-22T06:57:27.263Z,13.40
2019-05-22T07:00:13.493Z,13.30
2019-05-22T07:02:34.859Z,13.30
2019-05-22T07:05:08.609Z,13.60
2019-05-22T07:07:38.799Z,13.60
2019-05-22T07:10:10.251Z,13.60
2019-05-22T07:12:40.126Z,13.60
2019-05-22T07:15:36.758Z,13.60
2019-05-22T07:18:06.233Z,13.60
2019-05-22T07:20:38.120Z,13.70
2019-05-22T07:23:11.167Z,13.60
2019-05-22T07:25:41.746Z,13.70
2019-05-22T07:28:11.423Z,13.70
2019-05-22T07:30:41.554Z,13.60
2019-05-22T07:33:12.246Z,13.60
2019-05-22T07:35:56.753Z,13.60
2019-05-22T07:38:14.753Z,13.60
2019-05-22T07:40:44.739Z,13.60
2019-05-22T07:43:14.757Z,13.60
2019-05-22T07:45:44.548Z,13.60
2019-05-22T07:48:14.967Z,13.80
2019-05-22T07:50:49.497Z,13.70
2019-05-22T07:53:19.194Z,13.80
2019-05-22T07:55:51.097Z,13.70
2019-05-22T07:58:20.900Z,13.70
2019-05-22T08:01:01.558Z,13.60
2019-05-22T08:03:32.543Z,13.70
2019-05-22T08:06:02.745Z,13.70
2019-05-22T08:08:35.407Z,13.80
2019-05-22T08:11:06.117Z,13.90
2019-05-22T08:13:36.068Z,13.70
2019-05-22T08:16:06.220Z,13.80
2019-05-22T08:18:38.816Z,13.80
2019-05-22T08:21:09.013Z,13.60
2019-05-22T08:23:38.897Z,13.60
2019-05-22T08:26:11.696Z,13.60
2019-05-22T08:28:41.515Z,13.50
2019-05-22T08:31:13.277Z,13.60
2019-05-22T08:33:42.608Z,13.70
2019-05-22T08:36:11.985Z,13.60
2019-05-22T08:38:43.661Z,13.60
2019-05-22T08:41:15.101Z,13.60
2019-05-22T08:44:11.250Z,13.60
2019-05-22T08:46:16.778Z,13.50
2019-05-22T08:48:48.818Z,13.60
2019-05-22T08:51:17.277Z,13.50
2019-05-22T08:53:48.569Z,13.40
2019-05-22T08:56:18.509Z,13.50
2019-05-22T08:58:48.596Z,13.50
2019-05-22T09:01:18.005Z,13.60
2019-05-22T09:03:47.611Z,13.60
2019-05-22T09:06:16.844Z,13.50
2019-05-22T09:08:46.442Z,13.50
2019-05-22T09:11:15.773Z,13.40
2019-05-22T09:13:45.129Z,13.40
2019-05-22T09:16:16.701Z,13.40
2019-05-22T09:18:46.057Z,13.40
2019-05-22T09:21:16.692Z,13.40
2019-05-22T09:23:47.329Z,13.30
2019-05-22T09:26:17.226Z,13.20
2019-05-22T09:28:49.026Z,13.00
2019-05-22T09:31:19.118Z,12.80
2019-05-22T09:33:48.740Z,12.80
2019-05-22T09:36:18.274Z,12.80
2019-05-22T09:38:51.399Z,12.80
2019-05-22T09:41:18.596Z,12.70
2019-05-22T09:43:47.999Z,12.70
2019-05-22T09:46:17.889Z,12.80
2019-05-22T09:48:47.373Z,12.80
2019-05-22T09:51:16.884Z,12.80
2019-05-22T09:53:46.321Z,12.70
2019-05-22T09:56:15.942Z,12.80
2019-05-22T09:58:45.874Z,12.90
2019-05-22T10:01:15.329Z,12.90
2019-05-22T10:03:44.526Z,12.90
2019-05-22T10:06:14.028Z,12.80
2019-05-22T10:08:43.278Z,12.80
2019-05-22T10:11:12.641Z,12.90
2019-05-22T10:13:42.128Z,12.80
2019-05-22T10:16:11.576Z,13.00
2019-05-22T10:18:41.593Z,12.90
2019-05-22T10:21:11.402Z,12.90
2019-05-22T10:23:40.967Z,12.80
2019-05-22T10:26:11.012Z,12.70
2019-05-22T10:28:41.096Z,12.80
2019-05-22T10:31:11.679Z,12.80
2019-05-22T10:33:42.346Z,12.70
2019-05-22T10:36:13.471Z,12.80
2019-05-22T10:38:42.875Z,12.70
2019-05-22T10:41:12.938Z,12.80
2019-05-22T10:43:42.155Z,12.80
2019-05-22T10:46:12.418Z,12.80
2019-05-22T10:48:41.759Z,12.80
2019-05-22T10:51:11.126Z,12.70
2019-05-22T10:53:40.523Z,12.70
2019-05-22T10:56:10.174Z,12.70
2019-05-22T10:58:40.763Z,12.90
2019-05-22T11:01:10.615Z,12.80
2019-05-22T11:03:40.183Z,12.70
2019-05-22T11:06:09.714Z,12.70
2019-05-22T11:08:40.325Z,12.70
2019-05-22T11:11:10.129Z,12.60
2019-05-22T11:13:40.515Z,12.70
2019-05-22T11:16:10.409Z,12.70
2019-05-22T11:18:42.413Z,12.70
2019-05-22T11:21:12.656Z,12.60
2019-05-22T11:23:51.786Z,12.70
2019-05-22T11:26:13.530Z,12.70
2019-05-22T11:28:43.309Z,12.70
2019-05-22T11:31:12.912Z,12.60
2019-05-22T11:33:42.489Z,12.60
2019-05-22T11:36:13.119Z,12.50
2019-05-22T11:38:42.464Z,12.60
2019-05-22T11:41:12.576Z,12.80
2019-05-22T11:43:42.005Z,12.80
2019-05-22T11:46:11.388Z,12.80
2019-05-22T11:48:40.649Z,12.70
2019-05-22T11:51:10.562Z,12.90
2019-05-22T11:53:39.974Z,12.90
2019-05-22T11:56:09.955Z,12.80
2019-05-22T11:58:39.296Z,12.80
2019-05-22T12:01:08.874Z,12.90
2019-05-22T12:03:38.482Z,12.90
2019-05-22T12:06:07.904Z,12.90
2019-05-22T12:08:37.649Z,12.90
2019-05-22T12:11:09.473Z,13.00
2019-05-22T12:13:38.853Z,12.90
2019-05-22T12:16:08.329Z,12.90
2019-05-22T12:18:38.163Z,12.90
2019-05-22T12:21:09.938Z,12.90
2019-05-22T12:23:39.667Z,13.00
2019-05-22T12:26:09.915Z,12.90
2019-05-22T12:28:39.865Z,12.90
2019-05-22T12:31:09.569Z,13.00
2019-05-22T12:33:40.112Z,12.90
2019-05-22T12:36:13.892Z,12.90
2019-05-22T12:38:43.319Z,12.90
2019-05-22T12:41:14.807Z,12.90
2019-05-22T12:43:45.085Z,13.00
2019-05-22T12:46:15.564Z,13.00
2019-05-22T12:48:45.677Z,13.00
2019-05-22T12:51:16.214Z,13.00
2019-05-22T12:53:46.699Z,13.00
2019-05-22T12:56:16.805Z,13.10
2019-05-22T12:58:46.480Z,13.10
2019-05-22T13:01:16.067Z,13.00
2019-05-22T13:03:46.928Z,13.00
2019-05-22T13:06:16.409Z,12.90
2019-05-22T13:08:45.803Z,13.00
2019-05-22T13:11:15.257Z,13.00
2019-05-22T13:13:45.422Z,12.90
2019-05-22T13:16:15.793Z,12.90
2019-05-22T13:18:45.819Z,12.90
2019-05-22T13:21:18.621Z,12.80
2019-05-22T13:23:50.846Z,12.80
2019-05-22T13:26:23.193Z,12.90
2019-05-22T13:28:53.082Z,12.90
2019-05-22T13:31:23.747Z,13.00
2019-05-22T13:33:54.721Z,13.00
2019-05-22T13:36:24.150Z,12.90
2019-05-22T13:38:53.934Z,12.90
2019-05-22T13:41:23.447Z,12.80
2019-05-22T13:43:53.958Z,12.90
2019-05-22T13:46:23.291Z,12.80
2019-05-22T13:48:52.737Z,12.80
2019-05-22T13:51:22.406Z,12.80
2019-05-22T13:53:52.932Z,12.80
2019-05-22T13:56:25.370Z,12.80
2019-05-22T13:58:54.311Z,12.80
2019-05-22T14:01:24.785Z,12.70
2019-05-22T14:03:55.078Z,12.80
2019-05-22T14:06:24.853Z,12.70
2019-05-22T14:08:55.444Z,12.70
2019-05-22T14:11:25.282Z,12.80
2019-05-22T14:13:54.974Z,12.90
2019-05-22T14:16:24.574Z,12.80
2019-05-22T14:18:53.976Z,12.70
2019-05-22T14:21:23.299Z,12.70
2019-05-22T14:23:52.595Z,12.70
2019-05-22T14:26:21.982Z,12.70
2019-05-22T14:28:51.478Z,12.70
2019-05-22T14:31:20.878Z,12.70
2019-05-22T14:33:50.620Z,12.70
2019-05-22T14:36:20.634Z,12.70
2019-05-22T14:38:53.289Z,12.70
2019-05-22T14:41:22.763Z,12.70
2019-05-22T14:43:52.185Z,12.60
2019-05-22T14:46:21.457Z,12.70
2019-05-22T14:48:50.864Z,12.70
2019-05-22T14:51:21.185Z,12.70
2019-05-22T14:53:52.142Z,12.70
2019-05-22T14:56:22.773Z,12.60
2019-05-22T14:58:53.342Z,12.70
2019-05-22T15:01:23.925Z,12.60
2019-05-22T15:03:53.600Z,12.70
2019-05-22T15:06:23.074Z,12.60
2019-05-22T15:08:52.390Z,12.60
2019-05-22T15:11:22.046Z,12.70
2019-05-22T15:13:52.009Z,12.60
2019-05-22T15:16:21.629Z,12.60
2019-05-22T15:18:50.831Z,12.60
2019-05-22T15:21:20.892Z,12.60
2019-05-22T15:23:51.650Z,12.50
2019-05-22T15:26:20.980Z,12.50
2019-05-22T15:28:50.414Z,12.50
2019-05-22T15:31:20.092Z,12.50
2019-05-22T15:33:49.601Z,12.50
2019-05-22T15:36:24.079Z,12.60
2019-05-22T15:38:54.915Z,12.60
2019-05-22T15:41:26.165Z,12.60
2019-05-22T15:43:55.841Z,12.50
2019-05-22T15:46:25.997Z,12.50
2019-05-22T15:48:56.861Z,12.70
2019-05-22T15:51:29.914Z,12.60
2019-05-22T15:54:02.406Z,12.50
2019-05-22T15:56:33.900Z,12.50
2019-05-22T15:59:05.924Z,12.50
2019-05-22T16:01:36.870Z,12.50
2019-05-22T16:04:10.035Z,12.50
2019-05-22T16:06:39.421Z,12.50
2019-05-22T16:09:14.090Z,12.60
2019-05-22T16:11:44.638Z,12.50
2019-05-22T16:14:14.919Z,12.50
2019-05-22T16:16:45.753Z,12.40
2019-05-22T16:19:15.221Z,12.50
2019-05-22T16:21:48.499Z,12.50
2019-05-22T16:24:18.394Z,12.50
2019-05-22T16:26:48.476Z,12.50
2019-05-22T16:29:18.464Z,12.50
2019-05-22T16:31:48.499Z,12.50
2019-05-22T16:34:19.753Z,12.50
2019-05-22T16:36:49.201Z,12.40
2019-05-22T16:39:19.452Z,12.40
2019-05-22T16:41:49.064Z,12.40
2019-05-22T16:44:18.908Z,12.40
2019-05-22T16:46:49.836Z,12.20
2019-05-22T16:49:19.433Z,12.20
2019-05-22T16:51:49.631Z,12.20
2019-05-22T16:54:21.099Z,12.30
2019-05-22T16:56:51.559Z,12.30
2019-05-22T16:59:21.642Z,12.20
2019-05-22T17:02:00.184Z,12.20
2019-05-22T17:04:22.419Z,12.20
2019-05-22T17:06:52.148Z,12.30
2019-05-22T17:09:23.162Z,12.30
2019-05-22T17:11:53.102Z,12.20
2019-05-22T17:14:24.915Z,12.30
2019-05-22T17:16:54.594Z,12.20
2019-05-22T17:19:27.617Z,12.30
2019-05-22T17:21:55.186Z,12.20
2019-05-22T17:24:24.971Z,12.20
2019-05-22T17:26:56.114Z,12.30
2019-05-22T17:29:27.253Z,12.30
2019-05-22T17:31:56.929Z,12.20
2019-05-22T17:34:32.670Z,12.20
2019-05-22T17:37:08.273Z,12.20
2019-05-22T17:39:39.401Z,12.20
2019-05-22T17:42:11.805Z,12.30
2019-05-22T17:44:44.087Z,12.20
2019-05-22T17:47:14.716Z,12.20
2019-05-22T17:49:45.663Z,12.20
2019-05-22T17:52:16.212Z,12.10
2019-05-22T17:54:46.612Z,12.10
2019-05-22T17:57:16.742Z,12.20
2019-05-22T17:59:46.229Z,12.10
2019-05-22T18:02:38.919Z,12.10
2019-05-22T18:05:29.159Z,12.10
2019-05-22T18:08:09.495Z,12.00
2019-05-22T18:10:51.214Z,12.00
2019-05-22T18:13:21.170Z,12.10
2019-05-22T18:15:50.648Z,12.00
2019-05-22T18:18:20.075Z,12.00
2019-05-22T18:21:10.521Z,12.00
2019-05-22T18:23:39.007Z,12.00
2019-05-22T18:29:55.452Z,12.10
2019-05-22T18:32:24.901Z,12.10
2019-05-22T18:34:58.938Z,12.00
2019-05-22T18:37:28.283Z,12.00
2019-05-22T18:39:58.108Z,12.00
2019-05-22T18:42:27.809Z,12.00
2019-05-22T18:44:57.226Z,12.00
2019-05-22T18:47:27.728Z,12.00
2019-05-22T18:49:57.204Z,12.00
2019-05-22T18:52:39.924Z,12.00
2019-05-22T18:54:57.581Z,12.00
2019-05-22T18:57:27.069Z,12.10
2019-05-22T19:00:02.579Z,12.10
2019-05-22T19:02:27.524Z,12.10
2019-05-22T19:05:03.142Z,12.00
2019-05-22T19:07:32.857Z,12.10
2019-05-22T19:10:09.656Z,12.00
2019-05-22T19:12:39.341Z,11.90
2019-05-22T19:15:10.359Z,11.90
2019-05-22T19:17:44.335Z,12.00
2019-05-22T19:20:13.931Z,12.00
2019-05-22T19:22:58.496Z,12.00
2019-05-22T19:25:14.458Z,12.10
2019-05-22T19:27:43.819Z,12.10
2019-05-22T19:30:14.686Z,12.00
2019-05-22T19:32:44.324Z,12.00
2019-05-22T19:35:14.082Z,12.10
2019-05-22T19:37:43.503Z,12.10
2019-05-22T19:40:13.863Z,12.20
2019-05-22T19:42:43.352Z,12.20
2019-05-22T19:45:13.792Z,12.20
2019-05-22T19:47:50.437Z,12.20
2019-05-22T19:50:23.915Z,12.20
2019-05-22T19:52:55.586Z,12.10
2019-05-22T19:55:28.766Z,12.20
2019-05-22T19:57:58.842Z,12.20
2019-05-22T20:00:29.976Z,12.20
2019-05-22T20:03:01.451Z,12.20
2019-05-22T20:05:31.530Z,12.50
2019-05-22T20:08:03.560Z,12.30
2019-05-22T20:10:34.203Z,12.30
2019-05-22T20:13:09.031Z,12.30
2019-05-22T20:15:40.912Z,12.30
2019-05-22T20:18:12.352Z,12.30
2019-05-22T20:21:38.371Z,12.30
2019-05-22T20:24:07.862Z,12.20
2019-05-22T20:26:38.234Z,12.20
2019-05-22T20:29:08.592Z,12.20
2019-05-22T20:31:38.237Z,12.20
2019-05-22T20:34:09.616Z,12.20
2019-05-22T20:36:39.655Z,12.20
2019-05-22T20:39:12.969Z,12.20
2019-05-22T20:41:44.686Z,12.10
2019-05-22T20:44:57.714Z,12.10
2019-05-22T20:48:04.334Z,12.10
2019-05-22T20:50:34.728Z,12.20
2019-05-22T20:53:09.485Z,12.20
2019-05-22T20:55:48.996Z,12.20
2019-05-22T21:01:21.969Z,12.20
2019-05-22T21:03:51.706Z,12.20
2019-05-22T21:06:35.527Z,12.20
2019-05-22T21:09:06.785Z,12.20
2019-05-22T21:11:36.389Z,12.10
2019-05-22T21:14:06.298Z,12.10
2019-05-22T21:16:38.210Z,12.10
2019-05-22T21:19:07.515Z,12.20
2019-05-22T21:21:37.485Z,12.30
2019-05-22T21:24:11.231Z,12.10
2019-05-22T21:26:38.557Z,12.10
2019-05-22T21:29:08.117Z,12.20
2019-05-22T21:31:37.928Z,12.20
2019-05-22T21:34:09.453Z,12.10
2019-05-22T21:36:38.656Z,12.10
2019-05-22T21:39:13.222Z,12.10
2019-05-22T21:41:42.455Z,12.10
2019-05-22T21:44:13.242Z,12.10
2019-05-22T21:46:43.366Z,12.10
2019-05-22T21:49:13.461Z,12.10
2019-05-22T21:51:45.606Z,12.10
2019-05-22T21:54:16.353Z,12.10
2019-05-22T21:56:48.282Z,12.00
2019-05-22T21:59:19.361Z,12.10
2019-05-22T22:02:30.710Z,12.10
2019-05-22T22:05:08.941Z,12.10
2019-05-22T22:07:42.083Z,12.00
2019-05-22T22:10:14.586Z,12.10
2019-05-22T22:12:47.775Z,12.20
2019-05-22T22:15:18.312Z,12.10
2019-05-22T22:17:47.765Z,12.00
2019-05-22T22:20:21.722Z,12.00
2019-05-22T22:22:52.785Z,12.10
2019-05-22T22:25:23.858Z,12.10
2019-05-22T22:27:54.469Z,12.10
2019-05-22T22:30:29.893Z,12.10
2019-05-22T22:33:01.810Z,12.20
2019-05-22T22:35:31.510Z,12.20
2019-05-22T22:38:02.506Z,12.20
2019-05-22T22:40:33.125Z,12.20
2019-05-22T22:43:06.065Z,12.10
2019-05-22T22:45:49.827Z,12.10
2019-05-22T22:48:20.871Z,12.10
2019-05-22T22:50:50.271Z,12.10
2019-05-22T22:53:20.394Z,12.20
2019-05-22T22:55:52.025Z,12.10
2019-05-22T22:58:21.321Z,12.10
2019-05-22T23:00:53.340Z,12.20
2019-05-22T23:03:26.531Z,12.20
2019-05-22T23:06:45.068Z,12.20
2019-05-22T23:09:15.762Z,12.10
2019-05-22T23:11:45.830Z,12.20
2019-05-22T23:14:16.109Z,12.20
2019-05-22T23:16:46.078Z,12.20
2019-05-22T23:19:35.885Z,12.20
2019-05-22T23:22:05.456Z,12.20
2019-05-22T23:24:37.858Z,12.10
2019-05-22T23:27:07.910Z,12.20
2019-05-22T23:29:38.582Z,12.10
2019-05-22T23:32:09.348Z,12.20
2019-05-22T23:34:38.799Z,12.10
2019-05-22T23:37:10.783Z,12.20
2019-05-22T23:39:40.065Z,12.20
2019-05-22T23:42:14.320Z,12.20
2019-05-22T23:44:44.945Z,12.10
2019-05-22T23:47:17.239Z,12.10
2019-05-22T23:49:46.834Z,12.10
2019-05-22T23:52:17.849Z,12.10
2019-05-22T23:54:48.600Z,12.10
2019-05-22T23:57:18.484Z,12.10
2019-05-22T23:59:50.770Z,12.10
